Kirby, Ohio
Current Conditions -  °F | °C
As of 3:53 PM on Wednesday 26 Nov 2014 (Local Time) from KFDY Reporting Station
Overcast Overcast  
Wind Chill: 34°   Ceiling: 2200
Heat Index: 34°   Visibility: 10mi
Dew Point: 25°   Wind: 0mph
Humidity: 70%   Direction: NA
Pressure: 30.06"   Gusts: NA
Location:  40.81°N, 83.42°W
Report Text: KFDY 262053Z AUTO 00000KT 10SM BKN022 OVC031 01/M04 A3006 RMK AO2 SLP185 T00111039 55008
Loading
Personal Weather Stations






























Interactive Weather Map New forecast layout! Learn more

10-Day Weather Forecast

Advertisements
Track Severe Weather on mobile